Weather observations for the past three days for
Togiac Village, Togiak Airport
Metric (Imperial)
Date Time (akdt) Wind (kph) Vis. (km) Weather Sky Cond. Temperature (ºC) Relative Humidity Wind Chill (°C) Heat Index (°C) Pressure Precipitation (cm)
Air Dwpt 6 hour altimeter (cm) sea level (mb) 1 hr 3 hr 6 hr
Max. Min.
08 11:56 NW 13 16.09 Fair CLR 5.6 -3.9 51% 3 76.05 1013.8
08 10:56 Vrbl 9 16.09 Fair CLR 5 -2.8 57% 3 76.02 1013.4
08 09:56 N 11 16.09 Fair CLR 2.8 -2.2 2.8 -3.9 70% 0 75.87 1011.5
08 08:56 N 9 16.09 Fair CLR 1.1 -1.1 85% -1 75.72 1009.5
08 07:56 N 11 16.09 Fair CLR -1.7 -1.7 100% -5 75.44 1005.8
08 06:56 NW 6 16.09 Fair CLR -3.3 -3.9 96% 75.54 1007.0
08 05:56 N 9 16.09 Fair CLR -2.8 -3.3 96% -6 75.34 1004.4
08 04:56 N 6 16.09 Fair CLR -3.9 -3.9 100% 75.49 1006.5
08 03:56 NW 7 16.09 Fair CLR -3.9 -3.9 1.7 -3.9 100% -7 75.44 1005.7
08 02:56 N 13 16.09 Fair CLR -3.9 -3.9 100% -8 75.51 1006.8
08 01:56 N 7 16.09 A Few Clouds FEW001 -3.3 -3.3 100% -6 75.69 1009.1
08 00:56 N 9 16.09 Fair CLR -2.2 -2.8 96% -5 75.74 1009.7
07 23:56 S 6 16.09 A Few Clouds FEW050 1.1 0.6 97% 75.74 1009.8
07 22:56 SW 11 16.09 Fair CLR 0.6 0 96% -2 75.92 1012.1
07 21:56 S 17 16.09 Fair CLR 1.7 0 2.2 1.1 89% -2 75.92 1012.0
07 20:56 S 15 16.09 Fair CLR 1.7 0 89% -2 76 1013.1
07 19:56 S 20 16.09 Fair CLR 1.7 -0.6 85% -3 76.07 1014.1
07 18:56 S 20 16.09 Fair CLR 1.7 -0.6 85% -3 76.12 1014.9
07 17:56 S 17 16.09 Fair CLR 2.2 0 86% -2 76.17 1015.6
07 16:56 S 19 16.09 Fair CLR 1.7 0 89% -2 76.2 1015.9
07 15:56 S 20 8.05 Unknown Precip Fog/Mist OVC001 1.1 0 2.8 -0.6 92% -3 76.2 1016.1
07 14:56 S 17 1.21 Unknown Precip Fog/Mist OVC001 0.6 -0.6 92% -4 76.28 1016.8
07 13:56 S 17 0.80 Fog OVC001 0 -1.1 92% -4 76.28 1017.1
07 12:56 S 13 0.80 Fog OVC001 0 -1.1 92% -4 76.33 1017.5
07 11:56 S 17 0.40 Fog OVC001 0 -1.1 92% -4 76.4 1018.7
07 10:56 S 15 16.09 A Few Clouds FEW075 1.1 -1.7 82% -3 76.4 1018.7
07 09:56 NE 9 16.09 Fair CLR 1.7 -2.2 1.7 -5 76% -1 76.33 1017.7
07 08:56 N 7 16.09 Fair CLR -1.1 -2.2 92% -3 76.1 1014.4
07 07:56 N 7 16.09 Fair CLR -3.3 -3.3 100% -6 75.95 1012.5
07 06:56 NW 7 16.09 Fair CLR -5 -5.6 96% -8 75.72 1009.4
07 05:56 N 7 16.09 Fair CLR -4.4 -5 96% -7 75.84 1011.3
07 04:56 N 9 16.09 Fair CLR -3.3 -3.3 100% -7 75.79 1010.5
07 03:56 N 7 16.09 Mostly Cloudy BKN090 -3.3 -3.9 2.8 -3.3 96% -6 75.92 1012.2
07 02:56 NE 6 16.09 Fair CLR -2.2 -2.8 96% 76.1 1014.4
07 01:56 N 7 16.09 Fair CLR -2.2 -2.8 96% -5 76.02 1013.6
07 00:56 Calm 16.09 Fair CLR -0.6 -1.7 92% 76 1013.4
06 23:56 N 7 16.09 Overcast OVC090 1.1 -2.2 79% -1 76.07 1014.2
06 22:56 NW 11 16.09 Overcast OVC090 2.2 -2.8 70% -1 76.17 1015.6
06 21:56 W 7 16.09 Partly Cloudy SCT090 2.8 -1.1 5.6 2.2 76% 1 76.25 1016.6
06 20:56 S 7 16.09 Overcast OVC095 4.4 0 73% 3 76.35 1017.9
06 19:56 W 11 16.09 Overcast OVC095 5.6 -5 47% 3 76.38 1018.4
06 18:56 SW 22 16.09 Overcast OVC095 3.3 0 79% -1 76.33 1017.6
06 17:56 S 20 16.09 Overcast OVC095 2.8 0 82% -1 76.38 1018.4
06 16:56 SW 26 16.09 Mostly Cloudy BKN095 2.8 -0.6 79% -2 76.43 1019.0
06 15:56 S 26 16.09 Fair CLR 2.8 -1.1 4.4 0.6 76% -2 76.48 1019.7
06 14:56 S 22 16.09 Fair CLR 2.8 0 82% -2 76.56 1020.5
06 13:56 S 19 16.09 Fair CLR 3.9 -2.8 62% 0 76.61 1021.5
06 12:56 S 13 16.09 Fair CLR 3.3 -2.8 65% 0 76.63 1021.8
06 11:56 S 13 16.09 Fair CLR 2.2 -2.8 70% -1 76.58 1021.0
06 10:56 NW 15 16.09 Fair CLR 1.7 -5 61% -2 76.45 1019.3
06 09:56 N 7 16.09 Fair CLR 0.6 -3.3 0.6 -3.3 75% -1 76.28 1017.0
06 08:56 Calm 16.09 Fair CLR -0.6 -3.9 79% 76.12 1015.0
06 07:56 Calm 16.09 Fair CLR -1.1 -3.9 82% 76.05 1013.7
06 06:56 N 7 16.09 Fair CLR -1.7 -3.3 89% -4 75.87 1011.7
06 05:56 W 13 16.09 Fair CLR -1.7 -4.4 82% -6 75.87 1011.3
06 04:56 Calm 16.09 Fair CLR -1.7 -3.9 85% 76 1013.2
06 03:56 NW 13 16.09 Fair CLR -1.1 -3.9 3.3 -1.1 82% -5 75.77 1010.3
06 02:56 NW 17 16.09 Fair CLR -0.6 -3.3 82% -5 75.84 1011.3
06 01:56 W 17 16.09 Fair CLR -0.6 -3.3 82% -5 75.92 1012.2
06 00:56 NW 19 16.09 Fair CLR 0.6 -3.9 72% -4 75.82 1010.8
05 23:56 W 20 G 33 16.09 Fair CLR 0.6 -3.3 75% -4 75.95 1012.5
05 22:56 W 19 16.09 Fair CLR 1.7 -3.3 70% -2 76.1 1014.5
05 21:56 W 19 16.09 Fair CLR 3.3 -3.3 6.7 3.3 62% -1 76.1 1014.5
05 20:56 NW 19 16.09 Fair CLR 4.4 -3.9 55% 1 76.02 1013.5
05 19:56 NW 22 G 33 16.09 Fair CLR 5.6 -3.3 53% 2 76.07 1014.3
05 18:56 NW 30 16.09 Fair CLR 5.6 -1.7 60% 1 76.02 1013.7
05 17:56 NW 26 G 43 16.09 Fair CLR 6.1 -1.7 58% 2 76.02 1013.5
05 16:56 NW 37 G 44 16.09 Fair and Breezy CLR 5.6 -1.1 62% 1 75.97 1012.9
05 15:56 NW 39 G 46 16.09 Fair and Breezy CLR 5.6 -1.7 6.7 3.3 60% 1 75.97 1012.9
05 14:56 NW 30 16.09 Fair CLR 5.6 -0.6 65% 1 76 1013.1
05 13:56 NW 26 G 39 16.09 Fair CLR 6.1 -1.1 60% 2 75.97 1012.7
05 12:56 NW 28 G 35 16.09 A Few Clouds FEW085 6.1 0 65% 2 75.87 1011.6
Date Time (akdt) Wind (kph) Vis. (km) Weather Sky Cond. Air Dwpt Max. Min. Relative Humidity Wind Chill (°C) Heat Index (°C) altimeter (cm) sea level (mb) 1 hr 3 hr 6 hr
6 hour
Temperature (ºC) Pressure Precipitation (cm)